createdAt,value
2019-01-22T00:01:27.250Z,53.50
2019-01-22T00:03:58.453Z,53.30
2019-01-22T00:06:29.622Z,53.10
2019-01-22T00:09:00.923Z,53.40
2019-01-22T00:11:34.516Z,53.20
2019-01-22T00:14:05.698Z,53.10
2019-01-22T00:16:36.958Z,53.40
2019-01-22T00:19:08.231Z,53.10
2019-01-22T00:21:39.571Z,53.20
2019-01-22T00:24:10.837Z,53.10
2019-01-22T00:26:41.952Z,53.30
2019-01-22T00:29:13.071Z,53.10
2019-01-22T00:31:44.036Z,53.20
2019-01-22T00:34:15.200Z,53.10
2019-01-22T00:36:46.325Z,53.10
2019-01-22T00:39:17.365Z,52.90
2019-01-22T00:41:48.577Z,53.00
2019-01-22T00:44:19.583Z,53.00
2019-01-22T00:46:50.698Z,53.00
2019-01-22T00:49:21.637Z,52.70
2019-01-22T00:51:52.852Z,52.60
2019-01-22T00:54:24.227Z,52.70
2019-01-22T00:56:55.468Z,52.60
2019-01-22T00:59:26.640Z,52.00
2019-01-22T01:01:57.973Z,52.40
2019-01-22T01:04:29.023Z,52.70
2019-01-22T01:07:00.111Z,52.40
2019-01-22T01:09:31.074Z,52.40
2019-01-22T01:12:02.330Z,52.10
2019-01-22T01:14:33.463Z,52.20
2019-01-22T01:17:04.523Z,52.20
2019-01-22T01:19:35.470Z,52.00
2019-01-22T01:22:06.555Z,52.10
2019-01-22T01:24:37.634Z,52.20
2019-01-22T01:27:09.085Z,52.10
2019-01-22T01:29:40.333Z,52.10
2019-01-22T01:32:11.643Z,52.30
2019-01-22T01:34:42.792Z,52.20
2019-01-22T01:37:13.850Z,52.10
2019-01-22T01:39:45.423Z,52.00
2019-01-22T01:42:16.608Z,52.00
2019-01-22T01:44:47.724Z,52.10
2019-01-22T01:47:19.127Z,52.10
2019-01-22T01:49:50.215Z,52.10
2019-01-22T01:52:21.597Z,52.40
2019-01-22T01:54:52.839Z,52.20
2019-01-22T01:57:23.967Z,52.20
2019-01-22T01:59:55.247Z,52.30
2019-01-22T02:02:26.142Z,52.20
2019-01-22T02:04:57.415Z,52.30
2019-01-22T02:07:28.440Z,52.10
2019-01-22T02:10:00.427Z,52.00
2019-01-22T02:13:07.726Z,52.20
2019-01-22T02:16:04.275Z,51.90
2019-01-22T02:19:10.559Z,51.80
2019-01-22T02:22:52.563Z,51.70
2019-01-22T02:26:19.515Z,51.80
2019-01-22T02:29:50.879Z,51.70
2019-01-22T02:33:32.845Z,51.70
2019-01-22T02:37:01.019Z,51.60
2019-01-22T02:40:07.549Z,51.50
2019-01-22T02:43:48.419Z,51.60
2019-01-22T02:47:37.699Z,51.60
2019-01-22T02:51:33.419Z,51.60
2019-01-22T02:54:24.352Z,51.50
2019-01-22T02:57:59.591Z,51.50
2019-01-22T03:01:38.532Z,51.50
2019-01-22T03:05:06.191Z,51.50
2019-01-22T03:08:43.580Z,51.50
2019-01-22T03:11:43.717Z,51.60
2019-01-22T03:15:07.311Z,51.50
2019-01-22T03:18:17.772Z,51.40
2019-01-22T03:21:39.277Z,51.40
2019-01-22T03:24:58.854Z,51.40
2019-01-22T03:28:09.842Z,51.30
2019-01-22T03:31:33.525Z,51.30
2019-01-22T03:35:12.557Z,51.20
2019-01-22T03:38:38.037Z,51.10
2019-01-22T03:42:28.422Z,51.00
2019-01-22T03:45:39.258Z,51.00
2019-01-22T03:49:11.165Z,50.90
2019-01-22T03:53:00.708Z,50.90
2019-01-22T03:56:42.929Z,50.90
2019-01-22T03:59:14.160Z,50.90
2019-01-22T04:01:45.257Z,51.00
2019-01-22T04:04:16.509Z,51.00
2019-01-22T04:06:55.123Z,51.10
2019-01-22T04:09:54.145Z,51.00
2019-01-22T04:12:25.445Z,51.10
2019-01-22T04:14:56.743Z,51.10
2019-01-22T04:17:27.970Z,51.00
2019-01-22T04:19:59.313Z,51.10
2019-01-22T04:22:41.675Z,51.30
2019-01-22T04:25:46.618Z,51.20
2019-01-22T04:29:07.326Z,51.10
2019-01-22T04:32:14.704Z,51.20
2019-01-22T04:35:44.811Z,51.10
2019-01-22T04:38:50.839Z,51.20
2019-01-22T04:42:00.460Z,51.20
2019-01-22T04:45:54.656Z,51.30
2019-01-22T04:49:37.568Z,51.30
2019-01-22T04:53:17.732Z,51.30
2019-01-22T04:56:40.126Z,51.20
2019-01-22T05:00:05.721Z,51.30
2019-01-22T05:03:10.319Z,51.30
2019-01-22T05:06:23.907Z,51.30
2019-01-22T05:10:13.051Z,51.30
2019-01-22T05:13:35.920Z,51.40
2019-01-22T05:17:05.435Z,51.30
2019-01-22T05:20:37.597Z,51.20
2019-01-22T05:24:20.291Z,51.20
2019-01-22T05:27:41.788Z,51.30
2019-01-22T05:31:06.253Z,51.30
2019-01-22T05:34:11.010Z,51.30
2019-01-22T05:37:52.876Z,51.20
2019-01-22T05:41:24.050Z,51.30
2019-01-22T05:44:46.705Z,51.30
2019-01-22T05:48:21.944Z,51.10
2019-01-22T05:51:18.208Z,51.60
2019-01-22T05:54:47.416Z,51.00
2019-01-22T05:58:20.285Z,50.50
2019-01-22T06:01:16.602Z,49.90
2019-01-22T06:04:45.116Z,49.20
2019-01-22T06:08:34.068Z,48.70
2019-01-22T06:11:48.529Z,48.20
2019-01-22T06:14:59.309Z,47.70
2019-01-22T06:18:40.707Z,47.40
2019-01-22T06:22:10.408Z,47.50
2019-01-22T06:25:49.970Z,48.40
2019-01-22T06:29:22.160Z,50.90
2019-01-22T06:32:31.759Z,50.30
2019-01-22T06:35:48.476Z,49.80
2019-01-22T06:39:00.418Z,45.10
2019-01-22T06:43:11.108Z,42.50
2019-01-22T06:46:17.102Z,44.90
2019-01-22T06:49:42.479Z,41.80
2019-01-22T06:53:06.600Z,41.20
2019-01-22T06:56:25.958Z,39.90
2019-01-22T06:59:39.159Z,41.00
2019-01-22T07:03:04.076Z,41.50
2019-01-22T07:06:38.930Z,42.10
2019-01-22T07:10:37.400Z,42.90
2019-01-22T07:14:10.703Z,43.70
2019-01-22T07:17:46.884Z,44.60
2019-01-22T07:21:01.957Z,45.50
2019-01-22T07:23:54.619Z,45.20
2019-01-22T07:27:38.759Z,45.30
2019-01-22T07:30:58.756Z,45.40
2019-01-22T07:34:26.099Z,46.60
2019-01-22T07:37:55.937Z,47.60
2019-01-22T07:41:30.976Z,49.70
2019-01-22T07:45:08.095Z,50.20
2019-01-22T07:48:24.938Z,51.10
2019-01-22T07:51:53.331Z,51.30
2019-01-22T07:55:21.003Z,55.00
2019-01-22T07:58:59.273Z,47.10
2019-01-22T08:02:29.473Z,45.40
2019-01-22T08:05:43.678Z,44.90
2019-01-22T08:08:57.249Z,44.90
2019-01-22T08:12:02.667Z,44.80
2019-01-22T08:15:25.908Z,45.90
2019-01-22T08:19:10.194Z,45.40
2019-01-22T08:23:13.492Z,45.20
2019-01-22T08:26:30.081Z,45.70
2019-01-22T08:29:25.510Z,46.50
2019-01-22T08:32:43.715Z,45.90
2019-01-22T08:36:25.146Z,46.30
2019-01-22T08:40:03.991Z,46.30
2019-01-22T08:43:30.665Z,46.30
2019-01-22T08:47:16.526Z,45.50
2019-01-22T08:50:23.742Z,45.50
2019-01-22T08:53:46.907Z,45.70
2019-01-22T08:57:16.819Z,45.80
2019-01-22T09:00:42.018Z,45.90
2019-01-22T09:03:46.082Z,45.90
2019-01-22T09:07:34.603Z,46.00
2019-01-22T09:11:09.392Z,46.00
2019-01-22T09:14:31.619Z,45.90
2019-01-22T09:17:51.609Z,45.90
2019-01-22T09:21:06.510Z,46.00
2019-01-22T09:24:26.265Z,45.90
2019-01-22T09:28:08.363Z,45.90
2019-01-22T09:31:30.485Z,45.90
2019-01-22T09:35:18.630Z,46.00
2019-01-22T09:37:58.779Z,45.90
2019-01-22T09:40:30.341Z,45.90
2019-01-22T09:43:01.464Z,46.00
2019-01-22T09:45:32.722Z,46.00
2019-01-22T09:48:04.009Z,46.00
2019-01-22T09:50:35.253Z,46.00
2019-01-22T09:53:06.503Z,45.90
2019-01-22T09:55:37.862Z,45.70
2019-01-22T09:58:09.245Z,45.80
2019-01-22T10:00:40.883Z,45.80
2019-01-22T10:03:12.098Z,45.90
2019-01-22T10:05:43.440Z,45.70
2019-01-22T10:08:14.429Z,45.90
2019-01-22T10:10:45.539Z,45.90
2019-01-22T10:13:16.719Z,45.90
2019-01-22T10:15:47.772Z,45.70
2019-01-22T10:18:18.827Z,45.90
2019-01-22T10:20:50.128Z,45.80
2019-01-22T10:23:21.549Z,45.80
2019-01-22T10:25:52.656Z,45.90
2019-01-22T10:28:23.957Z,45.90
2019-01-22T10:30:54.921Z,45.90
2019-01-22T10:33:26.137Z,46.00
2019-01-22T10:35:57.342Z,46.00
2019-01-22T10:38:28.454Z,46.00
2019-01-22T10:40:59.701Z,46.00
2019-01-22T10:43:30.800Z,46.00
2019-01-22T10:46:02.040Z,46.00
2019-01-22T10:48:33.290Z,46.00
2019-01-22T10:51:04.280Z,46.60
2019-01-22T10:53:35.348Z,46.10
2019-01-22T10:56:09.039Z,45.70
2019-01-22T10:58:40.206Z,46.20
2019-01-22T11:01:11.580Z,46.60
2019-01-22T11:03:42.746Z,46.60
2019-01-22T11:06:13.878Z,47.30
2019-01-22T11:08:44.992Z,47.40
2019-01-22T11:11:16.289Z,47.60
2019-01-22T11:13:47.594Z,47.00
2019-01-22T11:16:18.817Z,47.30
2019-01-22T11:18:49.899Z,47.90
2019-01-22T11:21:20.880Z,48.30
2019-01-22T11:23:52.184Z,48.30
2019-01-22T11:26:23.354Z,49.70
2019-01-22T11:28:54.352Z,50.30
2019-01-22T11:31:25.551Z,48.90
2019-01-22T11:33:56.862Z,49.00
2019-01-22T11:36:27.820Z,50.90
2019-01-22T11:38:58.964Z,56.80
2019-01-22T11:41:30.041Z,67.60
2019-01-22T11:44:01.176Z,59.80
2019-01-22T11:46:32.435Z,56.20
2019-01-22T11:49:03.436Z,58.70
2019-01-22T11:51:34.250Z,57.30
2019-01-22T11:54:05.491Z,55.50
2019-01-22T11:56:36.568Z,53.00
2019-01-22T11:59:07.711Z,51.30
2019-01-22T12:01:38.797Z,48.50
2019-01-22T12:04:09.751Z,46.00
2019-01-22T12:06:40.761Z,44.40
2019-01-22T12:09:11.961Z,42.30
2019-01-22T12:11:43.195Z,40.70
2019-01-22T12:14:14.450Z,41.00
2019-01-22T12:16:45.460Z,41.60
2019-01-22T12:19:16.474Z,42.00
2019-01-22T12:21:48.217Z,39.80
2019-01-22T12:24:19.466Z,38.60
2019-01-22T12:26:50.609Z,39.90
2019-01-22T12:29:21.365Z,40.40
2019-01-22T12:31:52.461Z,41.50
2019-01-22T12:34:23.495Z,41.40
2019-01-22T12:36:54.556Z,41.90
2019-01-22T12:39:25.718Z,43.60
2019-01-22T12:41:56.679Z,43.50
2019-01-22T12:44:27.732Z,42.70
2019-01-22T12:46:58.697Z,41.30
2019-01-22T12:49:29.874Z,43.40
2019-01-22T12:52:00.977Z,43.60
2019-01-22T12:54:31.968Z,43.90
2019-01-22T12:57:03.161Z,44.00
2019-01-22T12:59:34.353Z,43.80
2019-01-22T13:02:05.350Z,43.40
2019-01-22T13:04:36.351Z,43.30
2019-01-22T13:07:07.372Z,43.40
2019-01-22T13:09:38.417Z,43.50
2019-01-22T13:12:09.451Z,44.00
2019-01-22T13:15:02.249Z,44.20
2019-01-22T13:17:34.601Z,43.70
2019-01-22T13:20:09.556Z,43.40
2019-01-22T13:22:40.705Z,43.60
2019-01-22T13:25:12.095Z,43.80
2019-01-22T13:27:43.296Z,43.80
2019-01-22T13:30:21.515Z,44.00
2019-01-22T13:32:52.649Z,44.40
2019-01-22T13:35:23.736Z,44.70
2019-01-22T13:37:54.699Z,44.50
2019-01-22T13:40:25.798Z,44.50
2019-01-22T13:42:56.754Z,44.60
2019-01-22T13:45:29.780Z,44.50
2019-01-22T13:48:01.647Z,44.30
2019-01-22T13:50:32.640Z,45.30
2019-01-22T13:53:03.799Z,45.40
2019-01-22T13:55:36.939Z,45.60
2019-01-22T13:58:08.072Z,45.80
2019-01-22T14:00:59.728Z,45.80
2019-01-22T14:03:30.865Z,45.70
2019-01-22T14:06:02.027Z,45.50
2019-01-22T14:08:33.117Z,45.50
2019-01-22T14:11:04.564Z,45.60
2019-01-22T14:13:35.992Z,45.60
2019-01-22T14:16:53.111Z,45.60
2019-01-22T14:19:24.205Z,45.70
2019-01-22T14:21:55.358Z,45.90
2019-01-22T14:24:26.651Z,45.80
2019-01-22T14:26:58.271Z,45.80
2019-01-22T14:29:29.221Z,45.80
2019-01-22T14:32:00.345Z,45.70
2019-01-22T14:34:31.951Z,45.60
2019-01-22T14:37:03.757Z,45.50
2019-01-22T14:39:35.072Z,45.60
2019-01-22T14:42:06.143Z,45.60
2019-01-22T14:44:42.049Z,45.60
2019-01-22T14:47:13.188Z,46.20
2019-01-22T14:49:48.615Z,45.60
2019-01-22T14:52:20.564Z,45.60
2019-01-22T14:54:51.644Z,45.50
2019-01-22T14:57:23.289Z,44.80
2019-01-22T14:59:54.318Z,45.40
2019-01-22T15:02:26.195Z,45.30
2019-01-22T15:04:57.404Z,45.40
2019-01-22T15:07:28.869Z,45.30
2019-01-22T15:09:59.802Z,45.20
2019-01-22T15:12:30.860Z,45.20
2019-01-22T15:15:04.570Z,45.20
2019-01-22T15:17:35.845Z,45.10
2019-01-22T15:20:11.686Z,45.10
2019-01-22T15:22:43.070Z,45.00
2019-01-22T15:25:14.567Z,45.00
2019-01-22T15:27:45.880Z,45.00
2019-01-22T15:30:29.341Z,45.10
2019-01-22T15:33:14.699Z,45.10
2019-01-22T15:35:45.917Z,45.20
2019-01-22T15:38:17.095Z,45.40
2019-01-22T15:40:48.544Z,45.50
2019-01-22T15:43:27.112Z,45.70
2019-01-22T15:45:58.594Z,45.70
2019-01-22T15:48:29.806Z,45.60
2019-01-22T15:51:02.208Z,45.80
2019-01-22T15:53:33.579Z,45.60
2019-01-22T15:56:04.738Z,45.50
2019-01-22T15:58:35.872Z,45.50
2019-01-22T16:01:08.341Z,45.40
2019-01-22T16:03:40.697Z,45.40
2019-01-22T16:06:14.596Z,45.30
2019-01-22T16:08:47.080Z,45.30
2019-01-22T16:11:18.681Z,45.30
2019-01-22T16:13:50.910Z,45.40
2019-01-22T16:16:24.764Z,45.30
2019-01-22T16:18:56.254Z,45.20
2019-01-22T16:21:28.276Z,45.20
2019-01-22T16:23:59.234Z,45.20
2019-01-22T16:26:30.391Z,45.20
2019-01-22T16:29:01.687Z,45.30
2019-01-22T16:31:32.807Z,45.40
2019-01-22T16:34:03.884Z,45.40
2019-01-22T16:36:35.140Z,45.10
2019-01-22T16:39:08.083Z,44.30
2019-01-22T16:41:39.069Z,44.40
2019-01-22T16:44:10.188Z,44.40
2019-01-22T16:46:41.273Z,44.40
2019-01-22T16:49:12.377Z,44.30
2019-01-22T16:51:43.464Z,44.40
2019-01-22T16:54:14.447Z,44.80
2019-01-22T16:56:45.626Z,47.90
2019-01-22T16:59:16.728Z,47.20
2019-01-22T17:01:47.943Z,46.60
2019-01-22T17:04:18.952Z,46.70
2019-01-22T17:06:50.260Z,47.10
2019-01-22T17:09:25.313Z,46.90
2019-01-22T17:11:54.055Z,47.30
2019-01-22T17:14:25.141Z,47.80
2019-01-22T17:16:56.152Z,47.10
2019-01-22T17:19:27.270Z,47.20
2019-01-22T17:21:58.355Z,47.40
2019-01-22T17:24:29.383Z,47.80
2019-01-22T17:27:18.599Z,48.90
2019-01-22T17:29:49.666Z,48.80
2019-01-22T17:32:36.575Z,49.10
2019-01-22T17:35:08.882Z,48.40
2019-01-22T17:37:40.037Z,47.90
2019-01-22T17:40:16.355Z,47.80
2019-01-22T17:42:45.633Z,47.80
2019-01-22T17:45:16.721Z,47.60
2019-01-22T17:47:47.606Z,47.60
2019-01-22T17:50:18.662Z,48.40
2019-01-22T17:52:49.738Z,47.50
2019-01-22T17:55:21.049Z,47.50
2019-01-22T17:57:52.183Z,47.70
2019-01-22T18:00:24.112Z,48.90
2019-01-22T18:02:55.329Z,53.80
2019-01-22T18:05:26.441Z,51.90
2019-01-22T18:07:57.487Z,51.30
2019-01-22T18:10:28.843Z,51.00
2019-01-22T18:12:59.968Z,50.70
2019-01-22T18:15:31.118Z,50.70
2019-01-22T18:18:02.358Z,50.60
2019-01-22T18:20:33.671Z,54.00
2019-01-22T18:23:04.859Z,52.20
2019-01-22T18:25:36.039Z,51.50
2019-01-22T18:28:07.444Z,53.50
2019-01-22T18:30:38.670Z,51.90
2019-01-22T18:33:09.888Z,52.10
2019-01-22T18:35:44.715Z,52.30
2019-01-22T18:38:17.731Z,52.50
2019-01-22T18:40:48.750Z,52.00
2019-01-22T18:43:20.129Z,52.20
2019-01-22T18:45:54.476Z,52.70
2019-01-22T18:48:26.051Z,53.40
2019-01-22T18:50:57.048Z,53.50
2019-01-22T18:53:29.582Z,52.20
2019-01-22T18:56:04.507Z,51.70
2019-01-22T18:58:36.013Z,50.40
2019-01-22T19:01:07.830Z,49.40
2019-01-22T19:03:40.763Z,48.20
2019-01-22T19:06:14.997Z,49.00
2019-01-22T19:08:47.590Z,49.00
2019-01-22T19:11:18.966Z,48.00
2019-01-22T19:13:51.261Z,47.60
2019-01-22T19:16:23.245Z,47.70
2019-01-22T19:18:54.552Z,46.80
2019-01-22T19:21:26.430Z,47.40
2019-01-22T19:24:00.241Z,47.70
2019-01-22T19:26:32.015Z,46.80
2019-01-22T19:29:04.075Z,46.90
2019-01-22T19:31:35.761Z,45.90
2019-01-22T19:34:09.348Z,45.70
2019-01-22T19:36:42.792Z,54.50
2019-01-22T19:39:14.344Z,55.30
2019-01-22T19:42:08.556Z,55.90
2019-01-22T19:44:42.175Z,55.80
2019-01-22T19:47:16.697Z,57.30
2019-01-22T19:49:48.280Z,56.90
2019-01-22T19:52:40.897Z,56.40
2019-01-22T19:55:14.630Z,53.00
2019-01-22T19:57:48.369Z,51.50
2019-01-22T20:00:24.642Z,49.90
2019-01-22T20:02:55.719Z,49.50
2019-01-22T20:05:27.046Z,47.20
2019-01-22T20:07:58.352Z,47.80
2019-01-22T20:10:29.439Z,46.90
2019-01-22T20:13:00.616Z,46.00
2019-01-22T20:15:31.826Z,46.00
2019-01-22T20:18:02.927Z,45.50
2019-01-22T20:20:34.112Z,45.00
2019-01-22T20:23:06.958Z,44.80
2019-01-22T20:25:38.070Z,44.60
2019-01-22T20:28:09.231Z,44.10
2019-01-22T20:30:41.395Z,44.20
2019-01-22T20:33:12.408Z,44.00
2019-01-22T20:35:43.694Z,43.30
2019-01-22T20:38:14.941Z,43.50
2019-01-22T20:40:46.167Z,43.30
2019-01-22T20:43:17.341Z,43.60
2019-01-22T20:45:48.419Z,44.20
2019-01-22T20:48:19.591Z,44.30
2019-01-22T20:50:50.707Z,43.90
2019-01-22T20:53:22.016Z,44.20
2019-01-22T20:55:53.228Z,44.20
2019-01-22T20:58:24.593Z,44.50
2019-01-22T21:00:55.697Z,43.90
2019-01-22T21:03:26.702Z,44.20
2019-01-22T21:05:57.780Z,40.90
2019-01-22T21:08:28.838Z,39.80
2019-01-22T21:11:00.106Z,39.60
2019-01-22T21:13:31.125Z,39.80
2019-01-22T21:16:02.278Z,40.50
2019-01-22T21:18:33.510Z,40.30
2019-01-22T21:21:04.424Z,39.00
2019-01-22T21:23:35.647Z,39.50
2019-01-22T21:26:06.649Z,40.40
2019-01-22T21:28:37.874Z,40.90
2019-01-22T21:31:09.009Z,41.00
2019-01-22T21:33:40.196Z,41.00
2019-01-22T21:36:11.238Z,39.80
2019-01-22T21:38:42.409Z,39.10
2019-01-22T21:41:13.440Z,38.70
2019-01-22T21:43:44.571Z,38.50
2019-01-22T21:46:15.787Z,38.50
2019-01-22T21:48:47.182Z,38.40
2019-01-22T21:51:18.326Z,38.30
2019-01-22T21:53:49.680Z,39.30
2019-01-22T21:56:20.921Z,41.00
2019-01-22T21:58:52.066Z,45.40
2019-01-22T22:01:23.509Z,47.80
2019-01-22T22:03:54.731Z,42.80
2019-01-22T22:06:25.884Z,43.60
2019-01-22T22:08:57.090Z,48.00
2019-01-22T22:11:28.205Z,53.40
2019-01-22T22:13:59.623Z,50.20
2019-01-22T22:16:30.763Z,48.50
2019-01-22T22:19:01.983Z,47.10
2019-01-22T22:21:33.178Z,47.40
2019-01-22T22:24:04.545Z,48.00
2019-01-22T22:26:36.001Z,46.70
2019-01-22T22:29:07.346Z,45.70
2019-01-22T22:31:38.499Z,45.00
2019-01-22T22:34:09.660Z,46.20
2019-01-22T22:36:40.963Z,45.80
2019-01-22T22:39:12.037Z,44.40
2019-01-22T22:41:43.392Z,44.30
2019-01-22T22:44:14.486Z,43.60
2019-01-22T22:46:45.657Z,43.70
2019-01-22T22:49:16.831Z,43.60
2019-01-22T22:51:47.755Z,44.00
2019-01-22T22:54:18.879Z,43.90
2019-01-22T22:56:50.174Z,43.80
2019-01-22T22:59:21.268Z,43.70
2019-01-22T23:01:52.439Z,43.90
2019-01-22T23:04:25.152Z,44.40
2019-01-22T23:06:56.431Z,44.00
2019-01-22T23:09:27.790Z,43.90
2019-01-22T23:11:59.119Z,44.00
2019-01-22T23:14:30.339Z,44.00
2019-01-22T23:17:01.608Z,44.00
2019-01-22T23:19:32.978Z,44.10
2019-01-22T23:22:04.117Z,44.10
2019-01-22T23:24:35.448Z,44.20
2019-01-22T23:27:06.664Z,44.20
2019-01-22T23:29:37.828Z,44.10
2019-01-22T23:32:09.092Z,44.20
2019-01-22T23:34:40.320Z,44.20
2019-01-22T23:37:11.331Z,44.30
2019-01-22T23:39:42.349Z,44.30
2019-01-22T23:42:13.554Z,44.30
2019-01-22T23:44:44.690Z,44.40
2019-01-22T23:47:15.954Z,44.30
2019-01-22T23:49:47.153Z,44.40
2019-01-22T23:52:18.252Z,44.30
2019-01-22T23:54:49.440Z,44.30
2019-01-22T23:57:20.760Z,44.30
2019-01-22T23:59:53.051Z,44.30
